Time;durP1;ratioP1;P1;durP2;ratioP2;P2;SDS_P1;SDS_P2;PMS_P1;PMS_P2;Temp;Humidity;BMP_temperature;BMP_pressure;BME280_temperature;BME280_humidity;BME280_pressure;Samples;Min_cycle;Max_cycle;Signal;HPM_P1;HPM_P2
2023/07/23 00:02:19;;;;;;;4.07;3.00;;;17.70;86.30;;;;;;5051752;28;20029;-69
2023/07/23 00:04:45;;;;;;;6.00;4.35;;;17.70;86.10;;;;;;5051536;28;20110;-69
2023/07/23 00:07:10;;;;;;;6.18;3.58;;;17.70;86.30;;;;;;5051708;28;20028;-69
2023/07/23 00:09:36;;;;;;;5.53;3.53;;;17.70;86.40;;;;;;5051560;28;20079;-69
2023/07/23 00:12:02;;;;;;;5.18;3.40;;;17.70;86.50;;;;;;5052021;28;20367;-69
2023/07/23 00:14:28;;;;;;;5.88;4.22;;;17.70;86.40;;;;;;5051589;28;20088;-68
2023/07/23 00:16:53;;;;;;;6.13;4.35;;;17.60;86.50;;;;;;5051218;28;20439;-69
2023/07/23 00:19:19;;;;;;;6.25;4.18;;;17.60;86.70;;;;;;5051652;28;20025;-69
2023/07/23 00:21:49;;;;;;;5.30;3.55;;;17.60;86.60;;;;;;5051433;28;20024;-69
2023/07/23 00:24:15;;;;;;;6.20;3.78;;;17.60;86.70;;;;;;5051468;28;20052;-69
2023/07/23 00:26:41;;;;;;;5.78;4.03;;;17.60;87.00;;;;;;5050959;28;20021;-69
2023/07/23 00:29:07;;;;;;;7.47;4.72;;;17.50;87.40;;;;;;5051137;28;20365;-69
2023/07/23 00:31:32;;;;;;;7.32;4.40;;;17.30;87.90;;;;;;5051129;28;20029;-69
2023/07/23 00:33:58;;;;;;;6.07;4.65;;;17.30;88.10;;;;;;5051232;28;20021;-69
2023/07/23 00:36:24;;;;;;;5.97;3.97;;;17.30;88.10;;;;;;5051261;28;20056;-69
2023/07/23 00:38:49;;;;;;;7.18;4.82;;;17.30;88.10;;;;;;5051010;28;20025;-69
2023/07/23 00:41:15;;;;;;;6.55;4.22;;;17.40;88.10;;;;;;5050982;28;20112;-69
2023/07/23 00:43:40;;;;;;;8.10;5.63;;;17.30;88.10;;;;;;5050867;28;20021;-69
2023/07/23 00:46:08;;;;;;;6.57;4.75;;;17.20;88.20;;;;;;5033122;28;20035;-69
2023/07/23 00:48:33;;;;;;;5.78;4.32;;;17.20;88.30;;;;;;5051139;28;20028;-69
2023/07/23 00:50:59;;;;;;;7.30;5.25;;;17.30;88.30;;;;;;5050897;28;20041;-68
2023/07/23 00:53:26;;;;;;;6.68;4.55;;;17.20;88.40;;;;;;5050911;28;20032;-69
2023/07/23 00:55:53;;;;;;;6.25;4.20;;;17.20;88.40;;;;;;5050477;28;20032;-69
2023/07/23 00:58:19;;;;;;;6.40;4.03;;;17.30;88.40;;;;;;5050799;28;20364;-68
2023/07/23 01:00:45;;;;;;;6.03;4.32;;;17.20;88.30;;;;;;5050674;28;20020;-68
2023/07/23 01:03:10;;;;;;;6.10;4.38;;;17.20;88.50;;;;;;5050749;28;20056;-69
2023/07/23 01:05:38;;;;;;;8.38;4.70;;;17.20;88.90;;;;;;5050435;28;20035;-69
2023/07/23 01:08:05;;;;;;;9.27;4.90;;;17.10;89.00;;;;;;5050323;28;20113;-68
2023/07/23 01:10:32;;;;;;;6.32;4.50;;;17.20;89.10;;;;;;5032838;28;20434;-68
2023/07/23 01:12:58;;;;;;;8.05;5.20;;;17.10;89.10;;;;;;5050683;28;20376;-68
2023/07/23 01:15:23;;;;;;;7.00;5.07;;;17.10;89.40;;;;;;5050424;28;20025;-68
2023/07/23 01:17:50;;;;;;;7.35;5.00;;;17.00;90.10;;;;;;5050147;28;20027;-68
2023/07/23 01:20:16;;;;;;;7.32;5.05;;;17.00;89.90;;;;;;5050331;28;20040;-68
2023/07/23 01:22:42;;;;;;;6.57;4.47;;;17.00;89.90;;;;;;5050333;28;20021;-68
2023/07/23 01:25:08;;;;;;;7.47;5.50;;;17.00;89.60;;;;;;5049961;28;20457;-68
2023/07/23 01:27:33;;;;;;;7.57;5.55;;;17.00;89.70;;;;;;5049451;28;20036;-68
2023/07/23 01:29:59;;;;;;;7.18;5.40;;;16.90;89.90;;;;;;5049968;28;20021;-69
2023/07/23 01:32:24;;;;;;;9.75;5.97;;;17.00;90.00;;;;;;5050087;28;20391;-68
2023/07/23 01:34:51;;;;;;;6.65;5.22;;;16.90;90.10;;;;;;5032037;28;20507;-68
2023/07/23 01:37:18;;;;;;;7.53;5.20;;;16.90;90.20;;;;;;5050499;28;20408;-69
2023/07/23 01:39:44;;;;;;;8.02;5.20;;;16.90;90.20;;;;;;5050315;28;20016;-68
2023/07/23 01:42:10;;;;;;;7.55;5.10;;;16.90;90.20;;;;;;5032044;28;20499;-68
2023/07/23 01:44:36;;;;;;;8.38;4.75;;;16.90;90.10;;;;;;5032398;28;20033;-68
2023/07/23 01:47:02;;;;;;;9.15;6.00;;;17.00;90.10;;;;;;5049967;28;20281;-68
2023/07/23 01:49:27;;;;;;;8.55;5.70;;;17.00;90.10;;;;;;5050052;28;20029;-68
2023/07/23 01:51:53;;;;;;;8.63;5.70;;;17.00;90.10;;;;;;5049671;28;20079;-68
2023/07/23 01:54:19;;;;;;;6.75;5.07;;;17.00;90.20;;;;;;5049797;28;20036;-68
2023/07/23 01:56:45;;;;;;;9.05;5.88;;;16.90;90.20;;;;;;5049872;28;20019;-68
2023/07/23 01:59:11;;;;;;;7.53;5.05;;;16.90;90.20;;;;;;5049900;28;20053;-68
2023/07/23 02:01:37;;;;;;;5.95;4.88;;;16.90;90.20;;;;;;5049928;28;20064;-68
2023/07/23 02:04:02;;;;;;;7.97;5.75;;;16.90;90.20;;;;;;5049000;28;20232;-68
2023/07/23 02:06:28;;;;;;;7.40;4.72;;;17.00;90.20;;;;;;5030734;28;20021;-68
2023/07/23 02:08:53;;;;;;;6.63;4.57;;;17.00;90.20;;;;;;5049392;28;20365;-68
2023/07/23 02:11:19;;;;;;;5.53;4.38;;;17.00;90.10;;;;;;5049823;28;20021;-68
2023/07/23 02:13:45;;;;;;;6.13;4.55;;;17.00;90.00;;;;;;5049963;28;20445;-69
2023/07/23 02:16:18;;;;;;;7.30;4.32;;;17.00;89.90;;;;;;5049453;28;20025;-68
2023/07/23 02:18:43;;;;;;;7.15;4.50;;;17.00;89.90;;;;;;5049844;28;20032;-68
2023/07/23 02:21:09;;;;;;;7.82;5.20;;;17.00;89.80;;;;;;5049318;28;20033;-68
2023/07/23 02:23:35;;;;;;;7.50;4.97;;;17.00;89.70;;;;;;5049810;28;20031;-68
2023/07/23 02:26:00;;;;;;;5.68;4.20;;;17.00;89.70;;;;;;5031549;28;20396;-68
2023/07/23 02:28:26;;;;;;;6.85;4.20;;;17.10;89.70;;;;;;5049829;28;20025;-68
2023/07/23 02:30:56;;;;;;;9.60;5.03;;;17.00;89.50;;;;;;5050007;28;20033;-68
2023/07/23 02:33:21;;;;;;;6.03;4.40;;;17.00;89.80;;;;;;5049617;28;20017;-68
2023/07/23 02:35:47;;;;;;;7.20;5.07;;;17.00;89.90;;;;;;5049752;28;20021;-68
2023/07/23 02:38:12;;;;;;;7.05;4.95;;;16.90;90.00;;;;;;5049727;28;20025;-68
2023/07/23 02:40:38;;;;;;;5.10;3.95;;;16.90;90.20;;;;;;5052983;28;20175;-68
2023/07/23 02:43:04;;;;;;;9.13;5.38;;;16.90;90.10;;;;;;5053350;28;20062;-68
2023/07/23 02:45:29;;;;;;;7.15;4.82;;;16.90;90.40;;;;;;5053290;28;20048;-68
2023/07/23 02:47:55;;;;;;;11.30;8.18;;;16.90;90.00;;;;;;5053060;28;20021;-68
2023/07/23 02:50:20;;;;;;;8.13;5.45;;;16.90;90.10;;;;;;5052871;28;20031;-68
2023/07/23 02:52:46;;;;;;;7.93;5.35;;;16.90;90.10;;;;;;5053181;28;20025;-68
2023/07/23 02:55:11;;;;;;;7.20;5.07;;;16.90;90.10;;;;;;5052947;28;20017;-68
2023/07/23 02:57:37;;;;;;;7.13;5.10;;;17.00;90.00;;;;;;5053166;28;20025;-68
2023/07/23 03:00:04;;;;;;;7.00;5.20;;;17.00;90.00;;;;;;5052880;28;20066;-68
2023/07/23 03:02:30;;;;;;;7.60;4.63;;;17.00;90.00;;;;;;5052992;28;20065;-68
2023/07/23 03:04:55;;;;;;;7.15;5.20;;;17.00;90.10;;;;;;5052646;28;20029;-68
2023/07/23 03:07:21;;;;;;;7.25;4.55;;;16.90;90.10;;;;;;5052564;28;20523;-68
2023/07/23 03:09:46;;;;;;;8.93;6.22;;;17.00;90.40;;;;;;5053094;28;20021;-68
2023/07/23 03:12:12;;;;;;;8.95;5.10;;;17.00;90.00;;;;;;5052896;28;20025;-68
2023/07/23 03:14:38;;;;;;;6.97;5.50;;;17.10;89.90;;;;;;5053016;28;20100;-68
2023/07/23 03:17:03;;;;;;;7.07;5.00;;;17.00;90.00;;;;;;5053117;28;20657;-68
2023/07/23 03:19:29;;;;;;;7.25;4.45;;;17.00;90.00;;;;;;5052648;28;20025;-68
2023/07/23 03:21:54;;;;;;;8.70;4.88;;;17.00;90.00;;;;;;5052733;28;20029;-68
2023/07/23 03:24:20;;;;;;;6.25;4.25;;;17.00;90.00;;;;;;5052439;28;20029;-68
2023/07/23 03:26:45;;;;;;;7.53;4.47;;;17.00;90.00;;;;;;5052365;28;20104;-68
2023/07/23 03:29:11;;;;;;;8.90;4.88;;;17.10;90.00;;;;;;5052133;28;20029;-68
2023/07/23 03:31:37;;;;;;;5.63;4.25;;;17.10;89.90;;;;;;5052482;28;20021;-68
2023/07/23 03:34:02;;;;;;;8.82;4.40;;;17.10;89.80;;;;;;5051963;28;20448;-68
2023/07/23 03:36:28;;;;;;;6.88;4.60;;;17.10;89.60;;;;;;5052299;28;20025;-68
2023/07/23 03:38:53;;;;;;;6.43;4.70;;;17.20;89.50;;;;;;5052276;28;20036;-68
2023/07/23 03:41:19;;;;;;;6.57;5.10;;;17.20;89.50;;;;;;5052126;28;20028;-68
2023/07/23 03:43:44;;;;;;;7.03;4.47;;;17.20;89.50;;;;;;5052469;28;20036;-68
2023/07/23 03:46:10;;;;;;;6.57;4.30;;;17.20;89.50;;;;;;5051969;28;20035;-68
2023/07/23 03:48:35;;;;;;;5.15;4.45;;;17.10;89.50;;;;;;5051738;28;20535;-68
2023/07/23 03:51:01;;;;;;;6.50;4.38;;;17.10;89.70;;;;;;5051147;28;20383;-68
2023/07/23 03:53:27;;;;;;;6.93;4.50;;;17.10;89.60;;;;;;5051989;28;20673;-68
2023/07/23 03:55:52;;;;;;;7.40;4.10;;;17.20;89.70;;;;;;5051887;28;20144;-68
2023/07/23 03:58:18;;;;;;;6.35;3.83;;;17.20;89.60;;;;;;5052255;28;20036;-68
2023/07/23 04:00:43;;;;;;;6.47;4.00;;;17.20;89.40;;;;;;5051956;28;20458;-68
2023/07/23 04:03:09;;;;;;;8.35;4.00;;;17.30;89.20;;;;;;5051531;28;20029;-68
2023/07/23 04:05:34;;;;;;;6.85;4.00;;;17.30;88.90;;;;;;5051604;28;20138;-68
2023/07/23 04:08:02;;;;;;;4.43;3.63;;;17.40;88.70;;;;;;5051487;28;20021;-68
2023/07/23 04:10:27;;;;;;;4.63;3.50;;;17.50;88.70;;;;;;5051647;28;20017;-68
2023/07/23 04:12:53;;;;;;;6.53;3.33;;;17.50;88.40;;;;;;5051598;28;20021;-68
2023/07/23 04:15:19;;;;;;;5.32;3.80;;;17.60;88.30;;;;;;5051296;28;20044;-69
2023/07/23 04:17:44;;;;;;;6.20;3.45;;;17.60;88.10;;;;;;5051422;28;20100;-68
2023/07/23 04:20:10;;;;;;;6.10;3.72;;;17.60;87.90;;;;;;5051435;28;20037;-68
2023/07/23 04:22:35;;;;;;;5.30;3.70;;;17.60;87.70;;;;;;5051711;28;20364;-68
2023/07/23 04:25:01;;;;;;;4.60;3.60;;;17.60;87.60;;;;;;5051462;28;20033;-68
2023/07/23 04:27:27;;;;;;;4.53;3.45;;;17.60;87.50;;;;;;5051114;28;20336;-68
2023/07/23 04:29:53;;;;;;;7.10;4.50;;;17.70;87.30;;;;;;5051219;28;20037;-68
2023/07/23 04:32:19;;;;;;;6.95;4.65;;;17.60;87.10;;;;;;5051038;28;20017;-68
2023/07/23 04:34:45;;;;;;;7.20;4.90;;;17.60;87.20;;;;;;5051014;28;20025;-68
2023/07/23 04:37:11;;;;;;;5.95;4.57;;;17.50;87.20;;;;;;5051124;28;20075;-68
2023/07/23 04:39:37;;;;;;;10.63;5.20;;;17.50;87.10;;;;;;5051108;28;20114;-68
2023/07/23 04:42:03;;;;;;;6.43;4.63;;;17.50;87.00;;;;;;5051210;28;20467;-68
2023/07/23 04:44:28;;;;;;;6.70;4.70;;;17.50;86.80;;;;;;5050891;28;20486;-69
2023/07/23 04:46:54;;;;;;;7.63;4.90;;;17.50;86.60;;;;;;5051100;28;20025;-68
2023/07/23 04:49:20;;;;;;;7.28;4.32;;;17.50;86.40;;;;;;5050560;28;20442;-68
2023/07/23 04:51:45;;;;;;;7.85;4.70;;;17.50;86.30;;;;;;5050870;28;20021;-68
2023/07/23 04:54:11;;;;;;;6.90;4.60;;;17.50;86.20;;;;;;5050628;28;20017;-68
2023/07/23 04:56:37;;;;;;;5.75;4.25;;;17.50;86.10;;;;;;5051008;28;20021;-68
2023/07/23 04:59:03;;;;;;;5.20;4.00;;;17.50;86.00;;;;;;5050778;28;20021;-68
2023/07/23 05:01:28;;;;;;;7.13;4.55;;;17.60;85.80;;;;;;5032590;28;20033;-68
2023/07/23 05:03:54;;;;;;;7.38;4.85;;;17.60;85.60;;;;;;5049821;28;20021;-68
2023/07/23 05:06:19;;;;;;;6.72;4.30;;;17.60;85.20;;;;;;5050391;28;20078;-68
2023/07/23 05:08:45;;;;;;;5.95;4.40;;;17.70;85.20;;;;;;5050386;28;20032;-68
2023/07/23 05:11:10;;;;;;;7.78;4.10;;;17.70;85.10;;;;;;5050374;28;20430;-68
2023/07/23 05:13:36;;;;;;;5.68;4.15;;;17.70;84.90;;;;;;5050620;28;20040;-68
2023/07/23 05:16:03;;;;;;;7.43;4.40;;;17.80;84.80;;;;;;5050435;28;20025;-68
2023/07/23 05:18:29;;;;;;;9.15;5.00;;;17.70;84.60;;;;;;5050071;28;20029;-68
2023/07/23 05:20:55;;;;;;;5.80;4.38;;;17.70;84.60;;;;;;5032407;28;20031;-68
2023/07/23 05:23:21;;;;;;;7.40;4.05;;;17.70;84.40;;;;;;5050174;28;20029;-68
2023/07/23 05:25:47;;;;;;;6.18;4.75;;;17.70;84.40;;;;;;5050166;28;20033;-68
2023/07/23 05:28:12;;;;;;;6.80;4.63;;;17.80;84.20;;;;;;5049933;28;20048;-68
2023/07/23 05:30:39;;;;;;;6.53;4.30;;;17.80;83.90;;;;;;5050139;28;20033;-68
2023/07/23 05:33:04;;;;;;;5.70;4.13;;;17.80;83.90;;;;;;5050076;28;20025;-68
2023/07/23 05:35:30;;;;;;;7.28;4.40;;;17.80;83.80;;;;;;5050061;28;20494;-68
2023/07/23 05:37:55;;;;;;;7.05;4.38;;;17.80;83.80;;;;;;5050350;28;20106;-68
2023/07/23 05:40:22;;;;;;;8.57;4.97;;;17.80;83.80;;;;;;5049965;28;20115;-69
2023/07/23 05:42:47;;;;;;;5.78;3.67;;;17.80;83.60;;;;;;5050136;28;20033;-68
2023/07/23 05:45:13;;;;;;;6.85;4.40;;;17.80;83.60;;;;;;5049900;28;20094;-68
2023/07/23 05:47:39;;;;;;;6.00;3.90;;;17.80;83.60;;;;;;5050177;28;20064;-68
2023/07/23 05:50:05;;;;;;;4.68;3.78;;;17.80;83.50;;;;;;5050020;28;20496;-68
2023/07/23 05:52:30;;;;;;;7.32;3.88;;;17.90;83.50;;;;;;5049910;28;20079;-68
2023/07/23 05:54:56;;;;;;;5.53;3.75;;;17.90;83.40;;;;;;5050162;28;20025;-68
2023/07/23 05:57:21;;;;;;;3.72;3.03;;;17.90;83.30;;;;;;5032340;28;20028;-69
2023/07/23 05:59:47;;;;;;;7.55;3.80;;;17.90;83.20;;;;;;5050159;28;20029;-68
2023/07/23 06:02:13;;;;;;;6.18;4.25;;;17.90;83.20;;;;;;5049892;28;20061;-68
2023/07/23 06:04:39;;;;;;;7.40;4.22;;;17.90;83.00;;;;;;5049844;28;20017;-68
2023/07/23 06:07:05;;;;;;;6.28;3.63;;;17.80;83.10;;;;;;5049773;28;20025;-68
2023/07/23 06:09:30;;;;;;;8.57;3.83;;;17.80;83.20;;;;;;5049878;28;20391;-69
2023/07/23 06:11:56;;;;;;;3.60;3.10;;;17.80;83.50;;;;;;5032466;28;20077;-68
2023/07/23 06:14:21;;;;;;;4.90;3.67;;;17.80;83.60;;;;;;5050808;28;20024;-68
2023/07/23 06:16:47;;;;;;;5.88;3.85;;;17.80;83.70;;;;;;5050819;28;20424;-68
2023/07/23 06:19:13;;;;;;;5.90;3.67;;;17.80;83.70;;;;;;5043557;28;20044;-68
2023/07/23 06:21:39;;;;;;;8.05;4.38;;;17.70;83.80;;;;;;5044110;28;20100;-68
2023/07/23 06:24:05;;;;;;;7.97;4.63;;;17.70;83.70;;;;;;5042189;28;20163;-68
2023/07/23 06:26:30;;;;;;;7.13;4.68;;;17.70;83.80;;;;;;5043806;28;20075;-68
2023/07/23 06:28:56;;;;;;;5.70;4.10;;;17.70;83.90;;;;;;5043189;28;20083;-68
2023/07/23 06:31:22;;;;;;;7.88;3.85;;;17.70;83.90;;;;;;5042067;28;20039;-68
2023/07/23 06:33:47;;;;;;;5.80;3.78;;;17.70;83.90;;;;;;5044135;28;20021;-68
2023/07/23 06:36:13;;;;;;;8.00;4.63;;;17.70;83.90;;;;;;5042836;28;20107;-68
2023/07/23 06:38:39;;;;;;;5.28;4.00;;;17.70;84.00;;;;;;5042554;28;20025;-68
2023/07/23 06:41:05;;;;;;;6.78;3.90;;;17.70;84.00;;;;;;5044066;28;20094;-68
2023/07/23 06:43:31;;;;;;;6.53;4.22;;;17.70;84.10;;;;;;5042129;28;20084;-68
2023/07/23 06:45:56;;;;;;;6.90;4.68;;;17.70;84.20;;;;;;5042426;28;20470;-68
2023/07/23 06:48:27;;;;;;;7.57;4.05;;;17.70;84.30;;;;;;5043534;28;20053;-68
2023/07/23 06:50:53;;;;;;;6.00;4.22;;;17.70;84.30;;;;;;5044892;28;20113;-68
2023/07/23 06:53:19;;;;;;;4.68;3.60;;;17.70;84.30;;;;;;5042373;28;20097;-68
2023/07/23 06:56:01;;;;;;;6.07;4.00;;;17.70;84.40;;;;;;5043369;28;20021;-68
2023/07/23 06:58:28;;;;;;;6.20;4.63;;;17.70;84.40;;;;;;5043545;28;20029;-68
2023/07/23 07:00:54;;;;;;;7.45;4.70;;;17.70;84.70;;;;;;5032847;28;20498;-68
2023/07/23 07:03:19;;;;;;;7.05;4.45;;;17.70;84.80;;;;;;5042085;28;20100;-68
2023/07/23 07:05:45;;;;;;;6.35;4.15;;;17.60;84.90;;;;;;5045226;28;20031;-68
2023/07/23 07:08:12;;;;;;;4.90;3.83;;;17.60;85.00;;;;;;5048031;28;20048;-68
2023/07/23 07:10:37;;;;;;;6.20;4.20;;;17.60;85.30;;;;;;5033489;28;20040;-68
2023/07/23 07:13:03;;;;;;;6.85;4.38;;;17.60;85.50;;;;;;5035544;28;20487;-69
2023/07/23 07:15:29;;;;;;;6.30;3.95;;;17.60;85.80;;;;;;5048495;28;20013;-69
2023/07/23 07:17:54;;;;;;;8.57;4.30;;;17.50;86.00;;;;;;5044027;28;20389;-68
2023/07/23 07:20:20;;;;;;;5.05;3.88;;;17.60;86.10;;;;;;5041725;28;20032;-68
2023/07/23 07:22:46;;;;;;;8.15;4.78;;;17.50;86.50;;;;;;5043118;28;20099;-68
2023/07/23 07:25:12;;;;;;;5.57;4.15;;;17.50;86.90;;;;;;5043902;28;20361;-68
2023/07/23 07:27:38;;;;;;;7.60;4.90;;;17.40;87.40;;;;;;5054803;28;20049;-68
2023/07/23 07:30:04;;;;;;;6.38;4.63;;;17.40;87.80;;;;;;5049136;28;20532;-68
2023/07/23 07:32:29;;;;;;;8.98;5.10;;;17.30;88.30;;;;;;5051658;28;20031;-68
2023/07/23 07:34:55;;;;;;;6.53;4.45;;;17.30;89.50;;;;;;5050477;28;20017;-68
2023/07/23 07:37:21;;;;;;;5.88;3.80;;;17.20;89.20;;;;;;5034538;28;20036;-68
2023/07/23 07:39:46;;;;;;;6.40;4.05;;;17.20;89.40;;;;;;5050595;28;20036;-68
2023/07/23 07:42:12;;;;;;;7.18;4.90;;;17.20;89.60;;;;;;5052865;28;20083;-68
2023/07/23 07:44:37;;;;;;;7.68;5.05;;;17.20;89.80;;;;;;5053099;28;20029;-68
2023/07/23 07:47:03;;;;;;;7.28;4.30;;;17.10;90.00;;;;;;5050373;28;20016;-68
2023/07/23 07:49:29;;;;;;;6.78;5.20;;;17.10;90.20;;;;;;5050198;28;20025;-68
2023/07/23 07:51:54;;;;;;;8.63;4.88;;;17.00;90.40;;;;;;5050806;28;20021;-68
2023/07/23 07:54:20;;;;;;;7.60;5.65;;;16.90;90.60;;;;;;5050404;28;20120;-68
2023/07/23 07:56:46;;;;;;;7.38;5.18;;;16.90;90.90;;;;;;5053673;28;20048;-68
2023/07/23 07:59:12;;;;;;;5.47;4.47;;;16.80;91.10;;;;;;5049751;28;20082;-68
2023/07/23 08:01:38;;;;;;;7.03;4.78;;;16.80;91.30;;;;;;5047261;28;20024;-69
2023/07/23 08:04:07;;;;;;;7.68;4.88;;;16.80;91.40;;;;;;5051300;28;20116;-68
2023/07/23 08:06:34;;;;;;;7.30;5.15;;;16.70;91.60;;;;;;5051962;28;20450;-68
2023/07/23 08:09:02;;;;;;;6.47;4.53;;;16.70;91.80;;;;;;5049621;28;20029;-68
2023/07/23 08:11:29;;;;;;;5.22;3.97;;;16.80;91.90;;;;;;5047971;28;20463;-68
2023/07/23 08:13:55;;;;;;;7.30;5.43;;;16.80;91.90;;;;;;5049796;28;20025;-68
2023/07/23 08:16:21;;;;;;;5.93;4.38;;;16.80;91.90;;;;;;5049887;28;20021;-68
2023/07/23 08:18:47;;;;;;;5.05;3.88;;;16.70;92.00;;;;;;5049750;28;20035;-68
2023/07/23 08:21:12;;;;;;;9.82;5.97;;;16.80;92.00;;;;;;5049527;28;20159;-68
2023/07/23 08:23:38;;;;;;;6.95;4.65;;;16.80;92.10;;;;;;5052677;28;20028;-68
2023/07/23 08:26:05;;;;;;;6.15;4.25;;;16.80;92.20;;;;;;5032298;28;20032;-69
2023/07/23 08:28:37;;;;;;;5.30;4.05;;;16.90;92.20;;;;;;5050360;28;20475;-68
2023/07/23 08:31:03;;;;;;;9.38;5.35;;;16.90;92.20;;;;;;5031116;28;20060;-68
2023/07/23 08:33:31;;;;;;;7.95;5.03;;;16.90;92.30;;;;;;5065228;28;20052;-68
2023/07/23 08:35:57;;;;;;;5.05;4.20;;;16.90;92.40;;;;;;5053297;28;20021;-68
2023/07/23 08:38:24;;;;;;;8.30;5.80;;;16.90;92.50;;;;;;5053154;28;20017;-68
2023/07/23 08:40:58;;;;;;;5.57;4.07;;;16.90;92.40;;;;;;5049039;28;20048;-68
2023/07/23 08:43:41;;;;;;;6.80;5.03;;;16.90;92.50;;;;;;5035837;28;20017;-68
2023/07/23 08:46:24;;;;;;;6.60;4.55;;;16.90;92.50;;;;;;5049446;28;20441;-68
2023/07/23 08:48:55;;;;;;;6.57;4.90;;;16.90;92.60;;;;;;5048923;28;20103;-68
2023/07/23 08:51:30;;;;;;;6.53;5.03;;;16.90;92.70;;;;;;5049093;28;20446;-68
2023/07/23 08:53:56;;;;;;;6.75;5.00;;;16.90;92.80;;;;;;5031358;28;20315;-68
2023/07/23 08:56:22;;;;;;;6.32;4.55;;;16.90;92.80;;;;;;5047651;28;20016;-68
2023/07/23 08:58:49;;;;;;;8.30;4.85;;;16.90;92.70;;;;;;5049033;28;20024;-68
2023/07/23 09:01:16;;;;;;;7.18;4.75;;;17.00;92.70;;;;;;5052076;28;20025;-68
2023/07/23 09:03:43;;;;;;;8.13;5.40;;;17.00;92.70;;;;;;5048743;28;20021;-68
2023/07/23 09:06:10;;;;;;;7.47;5.30;;;17.00;92.80;;;;;;5049907;28;20040;-68
2023/07/23 09:08:36;;;;;;;7.95;5.60;;;16.90;92.80;;;;;;5048788;28;20431;-68
2023/07/23 09:11:06;;;;;;;7.45;5.13;;;16.90;92.90;;;;;;5050196;28;20025;-68
2023/07/23 09:13:36;;;;;;;7.28;4.22;;;16.90;93.00;;;;;;5048585;28;20514;-68
2023/07/23 09:16:04;;;;;;;8.35;4.63;;;17.00;93.00;;;;;;5032333;28;20152;-68
2023/07/23 09:18:30;;;;;;;6.28;4.20;;;17.10;92.90;;;;;;5050885;28;20086;-68
2023/07/23 09:20:57;;;;;;;6.72;4.60;;;17.10;92.90;;;;;;5048816;28;20029;-69
2023/07/23 09:23:28;;;;;;;6.20;4.10;;;17.10;92.90;;;;;;5048265;28;20435;-68
2023/07/23 09:25:57;;;;;;;6.80;4.72;;;17.20;92.90;;;;;;5048780;28;20033;-68
2023/07/23 09:28:24;;;;;;;6.13;4.28;;;17.20;92.80;;;;;;5032398;28;20392;-68
2023/07/23 09:30:54;;;;;;;7.78;5.20;;;17.20;92.90;;;;;;5048309;28;20017;-69
2023/07/23 09:33:19;;;;;;;5.35;3.67;;;17.20;92.90;;;;;;5048519;28;20100;-73
2023/07/23 09:35:45;;;;;;;5.68;3.20;;;17.30;92.90;;;;;;5051663;28;20105;-69
2023/07/23 09:38:15;;;;;;;5.90;3.60;;;17.40;92.80;;;;;;5051129;28;20067;-68
2023/07/23 09:40:41;;;;;;;5.10;3.78;;;17.40;92.70;;;;;;5048288;28;20023;-69
2023/07/23 09:43:08;;;;;;;4.50;2.88;;;17.40;92.60;;;;;;5051549;28;20052;-69
2023/07/23 09:45:39;;;;;;;5.35;3.45;;;17.50;92.60;;;;;;5048378;28;20033;-69
2023/07/23 09:48:05;;;;;;;5.38;3.92;;;17.50;92.60;;;;;;5051679;28;20078;-69
2023/07/23 09:50:31;;;;;;;4.07;2.88;;;17.60;92.60;;;;;;5047581;28;20027;-68
2023/07/23 09:52:57;;;;;;;3.95;2.90;;;17.60;92.50;;;;;;5048291;28;20021;-69
2023/07/23 09:55:23;;;;;;;5.53;3.63;;;17.50;92.50;;;;;;5052255;28;20029;-69
2023/07/23 09:57:50;;;;;;;4.60;3.55;;;17.60;92.60;;;;;;5048097;28;20387;-69
2023/07/23 10:00:17;;;;;;;4.40;2.92;;;17.50;92.60;;;;;;5047796;28;20029;-68
2023/07/23 10:02:45;;;;;;;5.07;4.00;;;17.60;92.70;;;;;;5048244;28;20136;-69
2023/07/23 10:05:15;;;;;;;4.18;3.38;;;17.60;92.70;;;;;;5048114;28;20051;-68
2023/07/23 10:07:41;;;;;;;3.65;2.53;;;17.60;92.60;;;;;;5047810;28;20025;-68
2023/07/23 10:10:07;;;;;;;4.78;3.22;;;17.60;92.70;;;;;;5048422;28;20143;-68
2023/07/23 10:12:32;;;;;;;5.38;3.35;;;17.60;92.70;;;;;;5047881;28;20017;-69
2023/07/23 10:14:58;;;;;;;4.30;3.00;;;17.60;92.70;;;;;;5048788;28;20535;-68
2023/07/23 10:17:25;;;;;;;4.50;3.35;;;17.70;92.80;;;;;;5048064;28;20029;-69
2023/07/23 10:19:53;;;;;;;3.25;2.72;;;17.70;92.80;;;;;;5048735;28;20029;-69
2023/07/23 10:22:21;;;;;;;4.53;3.40;;;17.80;92.80;;;;;;5046983;28;20079;-69
2023/07/23 10:24:53;;;;;;;5.28;3.95;;;17.80;92.70;;;;;;5049408;28;20037;-69
2023/07/23 10:27:19;;;;;;;3.88;3.00;;;17.80;92.80;;;;;;5049246;28;20021;-69
2023/07/23 10:30:14;;;;;;;3.50;2.78;;;17.80;93.20;;;;;;5047701;28;20036;-68
2023/07/23 10:32:40;;;;;;;3.67;2.63;;;17.90;93.00;;;;;;5049049;28;20029;-68
2023/07/23 10:35:05;;;;;;;3.05;2.33;;;17.90;92.90;;;;;;5047672;28;20028;-68
2023/07/23 10:37:31;;;;;;;3.33;2.50;;;17.90;92.90;;;;;;5047010;28;20029;-68
2023/07/23 10:39:59;;;;;;;4.45;2.80;;;17.90;93.10;;;;;;5049028;28;20033;-68
2023/07/23 10:42:41;;;;;;;2.67;2.10;;;18.00;93.20;;;;;;5047558;28;20020;-68
2023/07/23 10:45:21;;;;;;;3.15;2.38;;;17.90;93.30;;;;;;5047052;28;20188;-68
2023/07/23 10:47:57;;;;;;;3.30;2.85;;;17.90;93.40;;;;;;5046113;28;20025;-68
2023/07/23 10:50:24;;;;;;;2.42;2.15;;;17.90;93.60;;;;;;5046403;28;20032;-68
2023/07/23 10:52:52;;;;;;;2.20;1.80;;;17.90;93.80;;;;;;5049263;28;20017;-68
2023/07/23 10:55:47;;;;;;;2.05;1.80;;;17.90;93.80;;;;;;5048411;28;20013;-68
2023/07/23 10:58:19;;;;;;;2.08;1.80;;;17.90;93.80;;;;;;5047780;28;20016;-68
2023/07/23 11:00:57;;;;;;;1.80;1.70;;;17.90;93.90;;;;;;5047743;28;20057;-69
2023/07/23 11:03:24;;;;;;;2.05;1.77;;;17.90;94.00;;;;;;5050063;28;20024;-67
2023/07/23 11:05:53;;;;;;;2.65;1.90;;;17.90;94.00;;;;;;5050878;28;20028;-66
2023/07/23 11:08:26;;;;;;;1.65;1.55;;;17.90;94.00;;;;;;5052717;28;20052;-66
2023/07/23 11:11:03;;;;;;;2.75;2.25;;;18.00;94.00;;;;;;5050545;28;20045;-66
2023/07/23 11:13:32;;;;;;;2.28;2.08;;;18.00;94.00;;;;;;5049632;28;20025;-69
2023/07/23 11:15:58;;;;;;;2.60;2.28;;;17.90;94.10;;;;;;5049837;28;20454;-69
2023/07/23 11:18:24;;;;;;;2.75;2.08;;;17.90;94.20;;;;;;5035250;28;20392;-69
2023/07/23 11:20:52;;;;;;;2.63;2.33;;;17.90;94.20;;;;;;5051684;28;20108;-69
2023/07/23 11:23:20;;;;;;;3.10;2.50;;;17.90;94.20;;;;;;5050568;28;20491;-69
2023/07/23 11:25:47;;;;;;;2.85;2.58;;;17.90;94.30;;;;;;5050989;28;20387;-69
2023/07/23 11:28:15;;;;;;;3.13;2.50;;;17.90;94.40;;;;;;5035671;28;20024;-69
2023/07/23 11:30:41;;;;;;;4.00;2.90;;;17.90;94.50;;;;;;5050652;28;20021;-69
2023/07/23 11:33:08;;;;;;;2.78;2.08;;;17.90;94.50;;;;;;5054225;28;20043;-69
2023/07/23 11:35:34;;;;;;;3.60;2.60;;;17.90;94.50;;;;;;5050892;28;20021;-69
2023/07/23 11:38:03;;;;;;;4.40;3.42;;;17.90;94.50;;;;;;5054326;28;20036;-69
2023/07/23 11:40:28;;;;;;;4.20;3.30;;;18.00;94.50;;;;;;5050251;28;20040;-69
2023/07/23 11:42:54;;;;;;;4.95;2.88;;;18.00;94.50;;;;;;5052298;28;20017;-69
2023/07/23 11:45:20;;;;;;;4.18;3.40;;;18.10;94.50;;;;;;5050357;28;20068;-69
2023/07/23 11:47:54;;;;;;;5.80;4.25;;;18.10;94.50;;;;;;5052170;28;20435;-69
2023/07/23 11:50:21;;;;;;;4.32;3.60;;;18.20;94.40;;;;;;5048633;28;20082;-69
2023/07/23 11:52:48;;;;;;;6.45;3.90;;;18.20;94.40;;;;;;5050329;28;20559;-69
2023/07/23 11:55:21;;;;;;;4.97;3.63;;;18.30;94.30;;;;;;5052728;28;20059;-69
2023/07/23 11:57:54;;;;;;;4.80;3.65;;;18.40;94.30;;;;;;5046263;28;20033;-69
2023/07/23 12:00:24;;;;;;;5.30;4.03;;;18.40;94.20;;;;;;5048487;28;20534;-68
2023/07/23 12:02:50;;;;;;;3.78;2.85;;;18.50;94.20;;;;;;5050007;28;20071;-69
2023/07/23 12:05:16;;;;;;;5.32;3.72;;;18.70;94.10;;;;;;5050598;28;20033;-69
2023/07/23 12:07:42;;;;;;;6.05;5.22;;;18.70;93.90;;;;;;5050108;28;20029;-70
2023/07/23 12:10:08;;;;;;;7.13;5.45;;;18.80;93.80;;;;;;5050939;28;20021;-70
2023/07/23 12:12:33;;;;;;;5.20;3.95;;;18.80;93.80;;;;;;5050749;28;20021;-69
2023/07/23 12:15:06;;;;;;;5.70;4.78;;;18.70;93.80;;;;;;5031307;28;20386;-69
2023/07/23 12:17:33;;;;;;;5.80;4.97;;;18.80;93.80;;;;;;5051569;28;20793;-69
2023/07/23 12:19:59;;;;;;;3.90;3.40;;;18.80;93.70;;;;;;5032962;28;20021;-69
2023/07/23 12:22:29;;;;;;;6.47;4.95;;;19.00;93.60;;;;;;5050310;28;20514;-67
2023/07/23 12:24:55;;;;;;;4.50;3.45;;;19.10;93.50;;;;;;5049739;28;20021;-67
2023/07/23 12:27:20;;;;;;;4.65;3.95;;;19.10;93.40;;;;;;5049316;28;20029;-67
2023/07/23 12:29:48;;;;;;;7.25;5.57;;;19.10;93.30;;;;;;5049162;28;20041;-67
2023/07/23 12:32:16;;;;;;;4.57;3.53;;;19.10;93.20;;;;;;5049249;28;20414;-66
2023/07/23 12:34:43;;;;;;;6.72;4.88;;;19.10;93.20;;;;;;5032005;28;20096;-66
2023/07/23 12:37:09;;;;;;;5.68;4.30;;;19.20;93.10;;;;;;5049316;28;20032;-66
2023/07/23 12:39:35;;;;;;;4.05;3.30;;;19.20;93.10;;;;;;5031939;28;20036;-67
2023/07/23 12:42:01;;;;;;;4.38;3.67;;;19.30;93.00;;;;;;5049926;28;20022;-66
2023/07/23 12:44:26;;;;;;;4.53;3.90;;;19.40;93.00;;;;;;5052559;28;20024;-67
2023/07/23 12:46:53;;;;;;;6.57;5.53;;;19.50;92.90;;;;;;5049354;28;20017;-66